Reklama
Líbí se Vám tento web? Budeme velmi rádi, pokud přidáte hodnocení +1

Seznam meteostanic a jejich METAR

Vyhledat místa podle abecedy:
A B C D E F G H I J K L M N O P Q R S T U V W X Y Z

Filtrovat:

ID stanice:
a/nebo
Název místa (fulltext):
 
Místo (ID)Naposledy načteno 
Pardubice (Pardubice) 21.06.2018 02:00 UTC Zobrazit data
Místo: Pardubice
Teplota: 15 °C (pocitová: 14.1 °C)
Vítr: 1 m/s z(e) 50°
Počasí: slunečno
Dohlednost: 20 km
Zákl. oblačnosti: N/A
Vlhkost: 77%
Pec pod Sněžkou (Pec p.Snez) 21.06.2018 02:00 UTC Zobrazit data
Místo: Pec pod Sněžkou
Teplota: 11 °C (pocitová: 20 °C)
Vítr: 0 m/s z(e) 0°
Počasí:
Dohlednost: 30 km
Zákl. oblačnosti: N/A
Vlhkost: 94%
Plzeň město - Mikulka (Plzen/Miku) 21.06.2018 02:00 UTC Zobrazit data
Místo: Plzeň město - Mikulka
Teplota: 16 °C (pocitová: 14.6 °C)
Vítr: 2 m/s z(e) 180°
Počasí: skoro zataženo
Dohlednost: 30 km
Zákl. oblačnosti: 6/8 1800 m
Vlhkost: 88%
Polom (Polom) 21.06.2018 02:00 UTC Zobrazit data
Místo: Polom
Teplota: 17 °C (pocitová: 15.3 °C)
Vítr: 3 m/s z(e) 150°
Počasí: slunečno
Dohlednost: 40 km
Zákl. oblačnosti: N/A
Vlhkost: 64%
Praha - Karlov (Praha/Kar) 21.06.2018 02:00 UTC Zobrazit data
Místo: Praha - Karlov
Teplota: 18 °C (pocitová: 17.2 °C)
Vítr: 2 m/s z(e) 190°
Počasí: skorojasno
Dohlednost: 35 km
Zákl. oblačnosti: 2/8 1800 m
Vlhkost: 73%
Praha - Kbely (Praha/Kbe) 21.06.2018 02:00 UTC Zobrazit data
Místo: Praha - Kbely
Teplota: 18 °C (pocitová: 16.7 °C)
Vítr: 3 m/s z(e) 180°
Počasí: slunečno
Dohlednost: 25 km
Zákl. oblačnosti: N/A
Vlhkost: 78%
Praha - Libuš (Praha/Lib) 21.06.2018 02:00 UTC Zobrazit data
Místo: Praha - Libuš
Teplota: 18 °C (pocitová: 17.2 °C)
Vítr: 2 m/s z(e) 0°
Počasí: oblačno
Dohlednost: 35 km
Zákl. oblačnosti: 4/8 1800 m
Vlhkost: 73%
Praha - Ruzyně (Praha/Ru) 21.06.2018 02:00 UTC Zobrazit data
Místo: Praha - Ruzyně
Teplota: 17 °C (pocitová: 14.9 °C)
Vítr: 4 m/s z(e) 200°
Počasí: skorojasno
Dohlednost: 50 km
Zákl. oblačnosti: 2/8 1800 m
Vlhkost: 77%
Přibyslav (Pribyslav) 21.06.2018 02:00 UTC Zobrazit data
Místo: Přibyslav
Teplota: 14 °C (pocitová: 12.1 °C)
Vítr: 2 m/s z(e) 100°
Počasí: skoro zataženo
Dohlednost: 30 km
Zákl. oblačnosti: 7/8 1800 m
Vlhkost: 88%
Přimda (Primda) 21.06.2018 02:00 UTC Zobrazit data
Místo: Přimda
Teplota: 16 °C (pocitová: 14 °C)
Vítr: 3 m/s z(e) 270°
Počasí:
Dohlednost: 35 km
Zákl. oblačnosti: N/A
Vlhkost: 77%
Pago Pago (NSTU) 21.06.2018 01:53 UTC Zobrazit METAR
NSTU 210153Z 11013KT 12SM FEW019 SCT040 SCT110 30/25 A2984 RMK SLP105 T03030248
Palanga (EYPA) 21.06.2018 01:50 UTC Zobrazit METAR
EYPA 210150Z AUTO 20011KT 9999 FEW074/// 18/13 Q1011
Palermo (LICJ) 21.06.2018 01:50 UTC Zobrazit METAR
LICJ 210150Z 16003KT CAVOK 21/17 Q1017
Palma de Mallorca (LEPA) 21.06.2018 02:00 UTC Zobrazit METAR
LEPA 210200Z 02003KT 340V060 CAVOK 18/17 Q1018 NOSIG
Panama City (MPTO) 21.06.2018 02:00 UTC Zobrazit METAR
MPTO 210200Z 36003KT 9999 SCT018 SCT090 27/24 Q1012 NOSIG
Paramaribo (SMZO) 21.06.2018 00:00 UTC Zobrazit METAR
SMZO 210000Z 00000KT 9999 FEW010 28/24 Q1014 NOSIG
Paris (LFPG) 21.06.2018 02:00 UTC Zobrazit METAR
LFPG 210200Z 30004KT 9000 NSC 17/15 Q1019 NOSIG
Paro (VQPR) 21.06.2018 02:30 UTC Zobrazit METAR
VQPR 210230Z 22003KT 6000 FEW006 SCT030 BKN090 20/14 Q1018
Phnom Penh (VDPP) 21.06.2018 02:00 UTC Zobrazit METAR
VDPP 210200Z 23012KT 210V270 9999 FEW017 31/24 Q1010
Plovdiv (LBPD) 21.06.2018 00:00 UTC Zobrazit METAR
LBPD 210000Z AUTO 25004KT 180V300 9999 SCT060/// 21/14 Q1018
Pohnpei I (PTPN) 21.06.2018 01:51 UTC Zobrazit METAR
PTPN 210151Z 06006KT 15SM SCT018 BKN130 OVC300 31/26 A2985
Ponta Delgada (LPPD) 21.06.2018 02:00 UTC Zobrazit METAR
LPPD 210200Z 30004KT 9999 SCT018 20/18 Q1026
Pori (EFPO) 21.06.2018 01:50 UTC Zobrazit METAR
EFPO 210150Z AUTO 13002KT CAVOK 07/04 Q1004
Port Moresby (AYPY) 21.06.2018 02:00 UTC Zobrazit METAR
AYPY 210200Z 14020KT 9999 FEW020 SCT030 29/24 Q1011 RMK
Port of Spain (TTPP) 21.06.2018 02:00 UTC Zobrazit METAR
TTPP 210200Z 00000KT 9999 FEW018 25/23 Q1016 NOSIG
Port Vila (NVVV) 18.06.2018 18:00 UTC Zobrazit METAR
NVVV 181800Z 07003KT 9999 FEW020 17/17 Q1015 RMK FG
Port-au-Prince (MTPP) 21.06.2018 00:00 UTC Zobrazit METAR
MTPP 210000Z 11009KT 9999 FEW026 SCT200 29/23 Q1015 A2999
Porto (LPPR) 21.06.2018 02:00 UTC Zobrazit METAR
LPPR 210200Z VRB02KT CAVOK 15/15 Q1016
Poznan (EPPO) 21.06.2018 02:00 UTC Zobrazit METAR
EPPO 210200Z 20003KT CAVOK 18/14 Q1013
Prague (LKPR) 21.06.2018 02:00 UTC Zobrazit METAR
LKPR 210200Z 20008KT CAVOK 16/13 Q1016 NOSIG
Praia (GVFM) Zatím nenačteno  
Pyongyang (ZKPY) Zatím nenačteno  
Reklama

Počasí na Váš email

Emaily jsou bez reklamy a bez spamu



Odhlásit newsletter

Reklama


Lunární kalendář

  • 28.06.
  • 06.07.
  • 13.07.
  • 19.07.



Slunečno.cz na Google+

Reklama


Reklama
Povinné ručení
Reklama




Reklama